createdAt,value
2018-06-11T00:01:55.657Z,14.60
2018-06-11T00:04:24.116Z,9.77
2018-06-11T00:06:52.516Z,13.47
2018-06-11T00:09:20.965Z,9.80
2018-06-11T00:11:49.435Z,11.47
2018-06-11T00:14:17.864Z,14.83
2018-06-11T00:16:46.612Z,11.90
2018-06-11T00:19:15.085Z,15.73
2018-06-11T00:21:43.652Z,11.83
2018-06-11T00:24:12.609Z,15.07
2018-06-11T00:26:41.387Z,17.50
2018-06-11T00:29:09.806Z,12.70
2018-06-11T00:31:38.259Z,13.13
2018-06-11T00:34:07.499Z,19.23
2018-06-11T00:36:36.005Z,16.73
2018-06-11T00:39:06.096Z,13.87
2018-06-11T00:41:34.486Z,14.27
2018-06-11T00:44:03.140Z,13.07
2018-06-11T00:46:31.577Z,15.30
2018-06-11T00:49:00.175Z,16.73
2018-06-11T00:51:28.662Z,16.30
2018-06-11T00:53:57.237Z,16.13
2018-06-11T00:56:25.714Z,12.70
2018-06-11T00:58:54.516Z,14.93
2018-06-11T01:01:22.969Z,16.50
2018-06-11T01:03:51.789Z,12.87
2018-06-11T01:06:20.260Z,15.10
2018-06-11T01:08:48.703Z,15.80
2018-06-11T01:11:17.222Z,13.63
2018-06-11T01:13:45.685Z,12.83
2018-06-11T01:16:14.169Z,14.07
2018-06-11T01:18:42.622Z,21.10
2018-06-11T01:21:11.124Z,15.60
2018-06-11T01:23:39.529Z,15.67
2018-06-11T01:26:08.126Z,18.33
2018-06-11T01:28:36.591Z,16.50
2018-06-11T01:31:05.006Z,17.83
2018-06-11T01:33:33.475Z,14.47
2018-06-11T01:36:01.899Z,17.60
2018-06-11T01:38:30.580Z,14.97
2018-06-11T01:40:59.182Z,14.40
2018-06-11T01:43:27.631Z,15.97
2018-06-11T01:45:56.064Z,14.03
2018-06-11T01:48:24.558Z,14.63
2018-06-11T01:50:52.952Z,16.07
2018-06-11T01:53:21.886Z,14.80
2018-06-11T01:55:50.391Z,13.60
2018-06-11T01:58:18.802Z,14.10
2018-06-11T02:00:47.293Z,12.17
2018-06-11T02:03:16.002Z,16.23
2018-06-11T02:05:44.414Z,16.07
2018-06-11T02:08:12.932Z,15.23
2018-06-11T02:10:42.046Z,12.83
2018-06-11T02:13:10.555Z,12.67
2018-06-11T02:15:38.996Z,12.60
2018-06-11T02:18:07.470Z,15.63
2018-06-11T02:20:36.015Z,12.23
2018-06-11T02:23:04.593Z,14.40
2018-06-11T02:25:32.989Z,12.30
2018-06-11T02:28:01.891Z,10.23
2018-06-11T02:30:30.381Z,10.27
2018-06-11T02:32:58.845Z,13.47
2018-06-11T02:35:27.367Z,12.57
2018-06-11T02:37:55.796Z,14.20
2018-06-11T02:40:24.238Z,12.30
2018-06-11T02:42:52.670Z,15.03
2018-06-11T02:45:21.080Z,9.87
2018-06-11T02:47:49.502Z,11.47
2018-06-11T02:50:17.930Z,11.27
2018-06-11T02:52:46.443Z,12.17
2018-06-11T02:55:14.873Z,13.03
2018-06-11T02:57:44.686Z,10.60
2018-06-11T03:00:13.331Z,11.83
2018-06-11T03:02:41.784Z,14.23
2018-06-11T03:05:10.351Z,14.13
2018-06-11T03:07:38.810Z,12.23
2018-06-11T03:10:07.265Z,12.83
2018-06-11T03:12:35.667Z,14.37
2018-06-11T03:15:04.128Z,14.57
2018-06-11T03:17:32.530Z,10.80
2018-06-11T03:20:00.946Z,16.27
2018-06-11T03:22:29.475Z,11.20
2018-06-11T03:24:57.988Z,13.17
2018-06-11T03:27:26.451Z,12.30
2018-06-11T03:29:55.618Z,16.10
2018-06-11T03:32:24.053Z,16.30
2018-06-11T03:34:52.609Z,16.77
2018-06-11T03:37:20.995Z,13.57
2018-06-11T03:39:49.393Z,18.07
2018-06-11T03:42:17.978Z,20.17
2018-06-11T03:44:46.354Z,15.77
2018-06-11T03:47:14.783Z,16.87
2018-06-11T03:49:43.177Z,13.70
2018-06-11T03:52:11.611Z,14.37
2018-06-11T03:54:40.056Z,15.63
2018-06-11T03:57:08.573Z,12.50
2018-06-11T03:59:37.028Z,15.10
2018-06-11T04:02:05.664Z,13.80
2018-06-11T04:04:34.133Z,12.87
2018-06-11T04:07:02.606Z,15.67
2018-06-11T04:09:31.635Z,14.97
2018-06-11T04:12:00.054Z,14.70
2018-06-11T04:14:28.503Z,13.70
2018-06-11T04:16:56.971Z,17.10
2018-06-11T04:19:25.448Z,18.27
2018-06-11T04:21:56.693Z,16.90
2018-06-11T04:24:25.132Z,17.30
2018-06-11T04:26:54.305Z,23.47
2018-06-11T04:29:22.786Z,21.13
2018-06-11T04:31:51.391Z,14.60
2018-06-11T04:34:19.833Z,21.03
2018-06-11T04:36:48.365Z,19.73
2018-06-11T04:39:16.927Z,29.60
2018-06-11T04:41:52.825Z,22.33
2018-06-11T04:44:23.826Z,12.77
2018-06-11T04:46:52.251Z,20.70
2018-06-11T04:49:20.724Z,11.80
2018-06-11T04:51:49.192Z,16.80
2018-06-11T04:54:17.718Z,19.60
2018-06-11T04:56:46.226Z,16.57
2018-06-11T04:59:14.782Z,17.47
2018-06-11T05:01:43.232Z,24.00
2018-06-11T05:04:11.645Z,12.13
2018-06-11T05:06:40.833Z,13.53
2018-06-11T05:09:09.366Z,15.00
2018-06-11T05:11:37.827Z,16.80
2018-06-11T05:14:06.430Z,13.00
2018-06-11T05:16:34.978Z,11.23
2018-06-11T05:19:03.532Z,11.37
2018-06-11T05:21:32.037Z,10.63
2018-06-11T05:24:00.546Z,11.10
2018-06-11T05:26:29.018Z,11.20
2018-06-11T05:28:57.475Z,11.20
2018-06-11T05:31:25.902Z,11.70
2018-06-11T05:33:55.044Z,12.27
2018-06-11T05:36:23.573Z,13.07
2018-06-11T05:38:52.035Z,14.07
2018-06-11T05:41:20.496Z,13.10
2018-06-11T05:43:48.981Z,13.47
2018-06-11T05:46:17.465Z,15.40
2018-06-11T05:48:46.668Z,15.47
2018-06-11T05:51:15.157Z,14.00
2018-06-11T05:53:43.645Z,14.63
2018-06-11T05:56:12.772Z,16.80
2018-06-11T05:58:41.893Z,20.17
2018-06-11T06:01:10.582Z,14.00
2018-06-11T06:03:39.001Z,16.03
2018-06-11T06:06:07.445Z,15.30
2018-06-11T06:08:36.637Z,15.77
2018-06-11T06:11:06.143Z,17.40
2018-06-11T06:13:35.094Z,13.93
2018-06-11T06:16:03.543Z,14.77
2018-06-11T06:18:31.987Z,17.37
2018-06-11T06:21:00.551Z,12.30
2018-06-11T06:23:28.982Z,14.60
2018-06-11T06:25:58.174Z,12.60
2018-06-11T06:28:27.420Z,17.67
2018-06-11T06:30:55.849Z,14.70
2018-06-11T06:33:24.344Z,15.13
2018-06-11T06:35:52.781Z,18.37
2018-06-11T06:38:21.186Z,16.57
2018-06-11T06:40:49.714Z,16.90
2018-06-11T06:43:18.308Z,16.50
2018-06-11T06:45:46.773Z,14.03
2018-06-11T06:48:15.186Z,19.60
2018-06-11T06:50:43.619Z,17.63
2018-06-11T06:53:12.623Z,19.20
2018-06-11T06:55:41.100Z,16.97
2018-06-11T06:58:09.552Z,14.60
2018-06-11T07:00:38.046Z,17.13
2018-06-11T07:03:06.502Z,16.07
2018-06-11T07:05:34.965Z,19.33
2018-06-11T07:08:03.508Z,14.10
2018-06-11T07:10:32.135Z,14.57
2018-06-11T07:13:00.616Z,16.53
2018-06-11T07:15:29.051Z,19.97
2018-06-11T07:17:58.068Z,20.97
2018-06-11T07:20:26.513Z,16.20
2018-06-11T07:22:55.065Z,15.77
2018-06-11T07:25:23.578Z,17.70
2018-06-11T07:27:58.351Z,18.60
2018-06-11T07:30:26.793Z,16.43
2018-06-11T07:32:55.321Z,16.67
2018-06-11T07:35:23.788Z,21.37
2018-06-11T07:37:52.192Z,14.40
2018-06-11T07:40:20.700Z,17.30
2018-06-11T07:42:49.230Z,15.97
2018-06-11T07:45:17.672Z,17.13
2018-06-11T07:47:46.066Z,16.33
2018-06-11T07:50:14.618Z,17.53
2018-06-11T07:52:43.048Z,20.13
2018-06-11T07:55:11.623Z,15.27
2018-06-11T07:57:40.069Z,13.50
2018-06-11T08:00:08.562Z,16.20
2018-06-11T08:02:37.145Z,16.47
2018-06-11T08:05:05.674Z,14.93
2018-06-11T08:07:34.201Z,16.47
2018-06-11T08:10:02.619Z,13.83
2018-06-11T08:12:37.702Z,14.00
2018-06-11T08:15:06.309Z,18.67
2018-06-11T08:17:34.818Z,13.20
2018-06-11T08:20:03.311Z,15.50
2018-06-11T08:22:31.912Z,14.40
2018-06-11T08:25:00.420Z,14.73
2018-06-11T08:27:29.692Z,20.40
2018-06-11T08:29:59.197Z,14.03
2018-06-11T08:32:27.715Z,15.10
2018-06-11T08:34:56.156Z,16.07
2018-06-11T08:37:24.675Z,17.10
2018-06-11T08:39:53.251Z,13.70
2018-06-11T08:42:21.859Z,13.77
2018-06-11T08:44:50.367Z,15.00
2018-06-11T08:47:18.870Z,16.60
2018-06-11T08:49:47.471Z,15.07
2018-06-11T08:52:16.032Z,12.77
2018-06-11T08:54:44.469Z,14.47
2018-06-11T08:57:13.056Z,18.50
2018-06-11T08:59:41.557Z,14.07
2018-06-11T09:02:10.337Z,15.60
2018-06-11T09:04:38.834Z,15.10
2018-06-11T09:07:07.497Z,16.93
2018-06-11T09:09:36.003Z,15.00
2018-06-11T09:12:04.508Z,15.87
2018-06-11T09:14:32.907Z,14.93
2018-06-11T09:17:01.669Z,16.00
2018-06-11T09:19:30.077Z,13.33
2018-06-11T09:21:58.516Z,14.33
2018-06-11T09:24:27.064Z,15.20
2018-06-11T09:26:55.549Z,16.20
2018-06-11T09:29:24.000Z,15.27
2018-06-11T09:31:52.640Z,14.77
2018-06-11T09:34:21.197Z,19.60
2018-06-11T09:36:50.416Z,16.73
2018-06-11T09:39:18.872Z,18.60
2018-06-11T09:41:47.455Z,18.87
2018-06-11T09:44:16.670Z,17.13
2018-06-11T09:46:45.252Z,14.20
2018-06-11T09:49:14.439Z,16.77
2018-06-11T09:51:43.327Z,15.33
2018-06-11T09:54:11.823Z,13.60
2018-06-11T09:56:40.288Z,15.87
2018-06-11T09:59:09.539Z,11.87
2018-06-11T10:01:38.241Z,12.43
2018-06-11T10:04:06.693Z,12.17
2018-06-11T10:06:35.205Z,12.10
2018-06-11T10:09:04.181Z,11.00
2018-06-11T10:11:32.636Z,13.73
2018-06-11T10:14:01.137Z,12.87
2018-06-11T10:16:29.720Z,10.10
2018-06-11T10:18:58.225Z,10.87
2018-06-11T10:21:26.857Z,10.60
2018-06-11T10:23:55.476Z,13.53
2018-06-11T10:26:23.905Z,9.23
2018-06-11T10:28:52.494Z,10.80
2018-06-11T10:31:20.975Z,11.03
2018-06-11T10:33:49.704Z,9.87
2018-06-11T10:36:18.229Z,10.80
2018-06-11T10:38:46.650Z,9.40
2018-06-11T10:41:16.429Z,9.00
2018-06-11T10:43:44.885Z,10.20
2018-06-11T10:46:13.347Z,8.50
2018-06-11T10:48:42.791Z,12.63
2018-06-11T10:51:11.356Z,12.20
2018-06-11T10:53:39.802Z,8.53
2018-06-11T10:56:08.246Z,10.73
2018-06-11T10:58:36.828Z,13.03
2018-06-11T11:01:05.722Z,9.67
2018-06-11T11:03:34.303Z,12.37
2018-06-11T11:06:02.816Z,10.83
2018-06-11T11:08:31.332Z,9.73
2018-06-11T11:11:00.156Z,10.67
2018-06-11T11:13:28.741Z,19.07
2018-06-11T11:15:57.550Z,11.07
2018-06-11T11:18:26.291Z,10.00
2018-06-11T11:20:55.029Z,10.10
2018-06-11T11:23:23.559Z,10.40
2018-06-11T11:25:52.083Z,11.43
2018-06-11T11:28:20.565Z,11.07
2018-06-11T11:30:49.165Z,12.00
2018-06-11T11:33:17.835Z,12.53
2018-06-11T11:35:46.331Z,13.63
2018-06-11T11:38:15.297Z,13.20
2018-06-11T11:40:43.792Z,11.07
2018-06-11T11:43:12.405Z,12.33
2018-06-11T11:45:41.071Z,10.70
2018-06-11T11:48:10.179Z,10.47
2018-06-11T11:50:39.377Z,11.50
2018-06-11T11:53:07.799Z,15.23
2018-06-11T11:55:36.539Z,10.40
2018-06-11T11:58:05.156Z,10.77
2018-06-11T12:00:33.671Z,12.33
2018-06-11T12:03:02.231Z,12.50
2018-06-11T12:05:31.184Z,10.60
2018-06-11T12:07:59.739Z,18.03
2018-06-11T12:10:28.752Z,10.73
2018-06-11T12:12:57.261Z,10.83
2018-06-11T12:15:25.797Z,14.13
2018-06-11T12:17:54.274Z,10.40
2018-06-11T12:20:22.942Z,15.77
2018-06-11T12:22:51.413Z,11.80
2018-06-11T12:25:19.958Z,13.33
2018-06-11T12:27:48.405Z,12.63
2018-06-11T12:30:16.921Z,10.70
2018-06-11T12:32:45.625Z,11.87
2018-06-11T12:35:14.093Z,10.13
2018-06-11T12:37:42.823Z,15.30
2018-06-11T12:40:11.529Z,10.87
2018-06-11T12:42:39.986Z,11.27
2018-06-11T12:45:08.530Z,15.37
2018-06-11T12:47:37.147Z,17.90
2018-06-11T12:50:05.682Z,10.23
2018-06-11T12:52:34.244Z,14.23
2018-06-11T12:55:02.822Z,13.33
2018-06-11T12:57:31.290Z,13.07
2018-06-11T12:59:59.770Z,18.93
2018-06-11T13:02:28.257Z,10.03
2018-06-11T13:04:56.923Z,13.97
2018-06-11T13:07:25.552Z,10.93
2018-06-11T13:09:54.213Z,14.63
2018-06-11T13:12:22.811Z,12.17
2018-06-11T13:14:51.320Z,12.43
2018-06-11T13:17:19.877Z,11.20
2018-06-11T13:19:48.433Z,9.67
2018-06-11T13:22:17.073Z,14.33
2018-06-11T13:24:45.553Z,12.87
2018-06-11T13:27:14.149Z,10.00
2018-06-11T13:29:42.603Z,13.03
2018-06-11T13:32:11.150Z,11.20
2018-06-11T13:34:46.842Z,10.57
2018-06-11T13:37:15.410Z,10.90
2018-06-11T13:39:43.924Z,10.77
2018-06-11T13:42:12.542Z,11.30
2018-06-11T13:44:41.165Z,12.73
2018-06-11T13:47:09.645Z,13.80
2018-06-11T13:49:38.137Z,10.73
2018-06-11T13:52:07.284Z,15.10
2018-06-11T13:54:36.452Z,13.57
2018-06-11T13:57:05.132Z,12.67
2018-06-11T13:59:33.665Z,14.60
2018-06-11T14:02:02.164Z,12.97
2018-06-11T14:04:31.676Z,13.10
2018-06-11T14:07:00.498Z,10.53
2018-06-11T14:09:29.782Z,10.40
2018-06-11T14:11:58.278Z,12.30
2018-06-11T14:14:26.790Z,13.57
2018-06-11T14:16:55.965Z,10.00
2018-06-11T14:19:24.871Z,11.10
2018-06-11T14:21:53.772Z,9.30
2018-06-11T14:24:22.303Z,9.33
2018-06-11T14:26:50.718Z,13.03
2018-06-11T14:29:19.237Z,11.57
2018-06-11T14:31:47.779Z,10.93
2018-06-11T14:34:16.341Z,11.40
2018-06-11T14:36:44.945Z,11.73
2018-06-11T14:39:13.506Z,11.17
2018-06-11T14:41:42.073Z,13.70
2018-06-11T14:44:10.662Z,13.20
2018-06-11T14:46:39.818Z,11.17
2018-06-11T14:49:08.868Z,10.50
2018-06-11T14:51:37.740Z,10.30
2018-06-11T14:54:06.239Z,11.93
2018-06-11T14:56:34.712Z,13.93
2018-06-11T14:59:03.261Z,13.00
2018-06-11T15:01:31.696Z,10.20
2018-06-11T15:04:00.548Z,12.90
2018-06-11T15:06:29.942Z,14.27
2018-06-11T15:08:58.437Z,11.13
2018-06-11T15:11:26.923Z,14.20
2018-06-11T15:13:55.356Z,11.40
2018-06-11T15:16:23.878Z,11.67
2018-06-11T15:18:53.498Z,14.80
2018-06-11T15:21:21.996Z,10.83
2018-06-11T15:23:50.582Z,11.20
2018-06-11T15:26:19.107Z,10.87
2018-06-11T15:28:47.692Z,11.47
2018-06-11T15:31:16.285Z,8.30
2018-06-11T15:33:44.892Z,15.97
2018-06-11T15:36:13.474Z,14.17
2018-06-11T15:38:43.296Z,13.50
2018-06-11T15:41:12.574Z,18.70
2018-06-11T15:43:41.163Z,11.73
2018-06-11T15:46:09.749Z,7.77
2018-06-11T15:48:38.258Z,13.13
2018-06-11T15:51:06.976Z,11.00
2018-06-11T15:53:35.519Z,14.20
2018-06-11T15:56:05.158Z,16.00
2018-06-11T15:58:33.651Z,19.87
2018-06-11T16:01:02.249Z,10.90
2018-06-11T16:03:31.415Z,7.37
2018-06-11T16:06:00.156Z,10.40
2018-06-11T16:08:28.790Z,12.43
2018-06-11T16:10:57.417Z,8.57
2018-06-11T16:13:25.954Z,11.60
2018-06-11T16:15:55.639Z,8.87
2018-06-11T16:18:24.144Z,12.30
2018-06-11T16:20:52.635Z,8.60
2018-06-11T16:23:24.249Z,8.20
2018-06-11T16:25:54.536Z,6.30
2018-06-11T16:28:23.451Z,9.73
2018-06-11T16:30:51.933Z,10.90
2018-06-11T16:33:21.971Z,11.80
2018-06-11T16:35:50.551Z,10.07
2018-06-11T16:38:19.455Z,10.80
2018-06-11T16:40:48.027Z,8.50
2018-06-11T16:43:17.083Z,9.40
2018-06-11T16:45:46.116Z,8.70
2018-06-11T16:48:14.750Z,22.10
2018-06-11T16:50:43.364Z,12.67
2018-06-11T16:53:12.868Z,10.17
2018-06-11T16:55:41.434Z,11.10
2018-06-11T16:58:12.370Z,10.90
2018-06-11T17:00:41.342Z,10.30
2018-06-11T17:03:09.971Z,10.43
2018-06-11T17:05:38.554Z,9.37
2018-06-11T17:08:07.464Z,11.73
2018-06-11T17:10:36.103Z,9.43
2018-06-11T17:13:05.084Z,6.67
2018-06-11T17:15:33.876Z,5.10
2018-06-11T17:18:02.806Z,9.50
2018-06-11T17:20:31.830Z,7.87
2018-06-11T17:23:01.093Z,8.73
2018-06-11T17:25:30.727Z,15.07
2018-06-11T17:27:59.552Z,12.03
2018-06-11T17:30:28.127Z,6.33
2018-06-11T17:32:56.772Z,7.93
2018-06-11T17:35:26.653Z,6.60
2018-06-11T17:37:55.731Z,3.60
2018-06-11T17:40:24.557Z,6.33
2018-06-11T17:42:53.556Z,5.83
2018-06-11T17:45:22.166Z,6.57
2018-06-11T17:47:53.048Z,4.40
2018-06-11T17:50:22.510Z,6.77
2018-06-11T17:52:51.116Z,6.77
2018-06-11T17:55:20.679Z,4.20
2018-06-11T17:57:49.361Z,6.87
2018-06-11T18:00:19.051Z,5.60
2018-06-11T18:02:49.080Z,6.10
2018-06-11T18:05:18.185Z,8.40
2018-06-11T18:07:46.927Z,7.03
2018-06-11T18:10:16.297Z,8.17
2018-06-11T18:12:47.190Z,8.27
2018-06-11T18:15:16.063Z,8.87
2018-06-11T18:17:45.044Z,7.07
2018-06-11T18:20:13.585Z,6.70
2018-06-11T18:22:43.004Z,6.40
2018-06-11T18:25:11.770Z,7.20
2018-06-11T18:27:41.526Z,5.53
2018-06-11T18:30:10.054Z,6.37
2018-06-11T18:32:38.710Z,5.17
2018-06-11T18:35:07.288Z,6.00
2018-06-11T18:37:35.778Z,10.00
2018-06-11T18:40:04.735Z,7.77
2018-06-11T18:42:34.145Z,9.03
2018-06-11T18:45:03.379Z,5.70
2018-06-11T18:47:32.195Z,6.37
2018-06-11T18:50:01.133Z,4.70
2018-06-11T18:52:30.052Z,10.30
2018-06-11T18:54:58.702Z,4.30
2018-06-11T18:57:27.700Z,5.20
2018-06-11T18:59:56.226Z,8.03
2018-06-11T19:02:25.661Z,4.53
2018-06-11T19:04:54.307Z,5.17
2018-06-11T19:07:22.881Z,9.50
2018-06-11T19:09:52.651Z,8.33
2018-06-11T19:12:21.238Z,9.30
2018-06-11T19:14:53.464Z,7.17
2018-06-11T19:17:22.608Z,4.13
2018-06-11T19:19:51.552Z,5.03
2018-06-11T19:22:20.770Z,5.60
2018-06-11T19:24:49.706Z,6.63
2018-06-11T19:27:18.705Z,6.80
2018-06-11T19:29:50.720Z,5.87
2018-06-11T19:32:19.236Z,5.83
2018-06-11T19:34:47.788Z,6.70
2018-06-11T19:37:16.979Z,6.17
2018-06-11T19:39:45.529Z,8.30
2018-06-11T19:42:14.145Z,6.30
2018-06-11T19:44:42.637Z,11.83
2018-06-11T19:47:11.304Z,7.60
2018-06-11T19:49:39.927Z,6.40
2018-06-11T19:52:08.830Z,7.30
2018-06-11T19:54:37.356Z,8.70
2018-06-11T19:57:06.001Z,6.73
2018-06-11T19:59:34.465Z,7.60
2018-06-11T20:02:03.111Z,7.43
2018-06-11T20:04:31.560Z,4.90
2018-06-11T20:07:00.178Z,4.67
2018-06-11T20:09:28.659Z,9.43
2018-06-11T20:11:57.173Z,7.47
2018-06-11T20:14:25.616Z,3.70
2018-06-11T20:16:54.086Z,4.47
2018-06-11T20:19:23.188Z,5.63
2018-06-11T20:21:51.605Z,7.53
2018-06-11T20:24:20.059Z,4.77
2018-06-11T20:26:48.522Z,6.47
2018-06-11T20:29:17.022Z,7.00
2018-06-11T20:31:45.491Z,7.20
2018-06-11T20:34:13.985Z,6.00
2018-06-11T20:36:42.481Z,4.17
2018-06-11T20:39:11.706Z,5.87
2018-06-11T20:41:40.338Z,6.03
2018-06-11T20:44:08.935Z,4.60
2018-06-11T20:46:37.429Z,6.93
2018-06-11T20:49:05.991Z,4.63
2018-06-11T20:51:34.448Z,5.80
2018-06-11T20:54:03.014Z,5.20
2018-06-11T20:56:31.558Z,5.37
2018-06-11T20:59:00.209Z,4.83
2018-06-11T21:01:28.683Z,5.57
2018-06-11T21:03:58.464Z,4.20
2018-06-11T21:06:26.970Z,4.13
2018-06-11T21:08:55.458Z,4.23
2018-06-11T21:11:23.964Z,4.00
2018-06-11T21:13:52.465Z,3.40
2018-06-11T21:16:20.952Z,4.63
2018-06-11T21:18:49.431Z,4.03
2018-06-11T21:21:17.901Z,4.30
2018-06-11T21:23:46.410Z,4.37
2018-06-11T21:26:14.895Z,3.87
2018-06-11T21:28:43.323Z,4.07
2018-06-11T21:31:11.823Z,6.80
2018-06-11T21:33:41.072Z,4.20
2018-06-11T21:36:09.621Z,4.37
2018-06-11T21:38:38.145Z,5.07
2018-06-11T21:41:06.819Z,4.80
2018-06-11T21:43:35.280Z,2.97
2018-06-11T21:46:03.933Z,3.77
2018-06-11T21:48:32.442Z,2.97
2018-06-11T21:51:01.009Z,3.63
2018-06-11T21:53:29.533Z,9.00
2018-06-11T21:55:58.023Z,3.20
2018-06-11T21:58:26.573Z,3.60
2018-06-11T22:00:55.033Z,5.80
2018-06-11T22:03:23.519Z,4.27
2018-06-11T22:05:51.920Z,6.70
2018-06-11T22:08:20.465Z,5.57
2018-06-11T22:10:48.958Z,8.10
2018-06-11T22:13:17.421Z,8.70
2018-06-11T22:15:45.867Z,9.30
2018-06-11T22:18:14.261Z,5.60
2018-06-11T22:20:42.746Z,4.67
2018-06-11T22:23:11.203Z,6.47
2018-06-11T22:25:39.849Z,6.50
2018-06-11T22:28:08.327Z,3.10
2018-06-11T22:30:36.880Z,3.90
2018-06-11T22:33:05.282Z,4.23
2018-06-11T22:35:33.779Z,7.10
2018-06-11T22:38:02.228Z,6.57
2018-06-11T22:40:30.752Z,4.50
2018-06-11T22:42:59.156Z,5.20
2018-06-11T22:45:27.605Z,4.83
2018-06-11T22:47:56.094Z,3.63
2018-06-11T22:50:24.509Z,5.87
2018-06-11T22:52:52.964Z,4.80
2018-06-11T22:55:21.443Z,5.07
2018-06-11T22:57:49.866Z,4.10
2018-06-11T23:00:28.967Z,6.60
2018-06-11T23:02:57.424Z,6.70
2018-06-11T23:05:25.842Z,4.73
2018-06-11T23:07:54.289Z,5.53
2018-06-11T23:10:22.706Z,6.00
2018-06-11T23:12:51.221Z,6.20
2018-06-11T23:15:19.731Z,6.93
2018-06-11T23:17:48.148Z,5.53
2018-06-11T23:20:16.586Z,5.70
2018-06-11T23:22:45.009Z,7.67
2018-06-11T23:25:13.789Z,6.53
2018-06-11T23:27:42.203Z,6.67
2018-06-11T23:30:10.698Z,5.63
2018-06-11T23:32:39.176Z,5.13
2018-06-11T23:35:07.597Z,4.23
2018-06-11T23:37:36.096Z,4.47
2018-06-11T23:40:04.794Z,5.20
2018-06-11T23:42:33.268Z,4.80
2018-06-11T23:45:01.715Z,9.23
2018-06-11T23:47:30.821Z,6.20
2018-06-11T23:49:59.306Z,4.13
2018-06-11T23:52:27.718Z,5.50
2018-06-11T23:54:56.136Z,6.70
2018-06-11T23:57:24.641Z,4.73
2018-06-11T23:59:53.051Z,6.20
